sensor_id;sensor_type;location;lat;lon;timestamp;P1;durP1;ratioP1;P2;durP2;ratioP2
53688;SDS011;39583;54.682;30.662;2024-02-15T07:11:01;7.53;;;4.15;;
53688;SDS011;39583;54.682;30.662;2024-02-15T07:13:34;7.25;;;4.07;;
53688;SDS011;39583;54.682;30.662;2024-02-15T07:16:06;7.32;;;3.95;;
53688;SDS011;39583;54.682;30.662;2024-02-15T07:18:35;6.78;;;3.95;;
53688;SDS011;39583;54.682;30.662;2024-02-15T07:21:03;6.57;;;3.13;;
53688;SDS011;39583;54.682;30.662;2024-02-15T07:23:35;7.65;;;3.83;;
53688;SDS011;39583;54.682;30.662;2024-02-15T07:26:04;9.63;;;4.57;;
53688;SDS011;39583;54.682;30.662;2024-02-15T07:28:32;7.68;;;3.88;;
53688;SDS011;39583;54.682;30.662;2024-02-15T07:30:59;7.35;;;3.33;;
53688;SDS011;39583;54.682;30.662;2024-02-15T07:33:30;6.80;;;4.25;;
53688;SDS011;39583;54.682;30.662;2024-02-15T07:35:58;6.28;;;3.70;;
53688;SDS011;39583;54.682;30.662;2024-02-15T07:38:25;6.05;;;3.47;;
53688;SDS011;39583;54.682;30.662;2024-02-15T07:40:53;8.85;;;3.88;;
53688;SDS011;39583;54.682;30.662;2024-02-15T07:43:21;6.28;;;3.10;;
53688;SDS011;39583;54.682;30.662;2024-02-15T07:45:48;7.55;;;3.60;;
53688;SDS011;39583;54.682;30.662;2024-02-15T07:48:16;3.95;;;2.85;;
53688;SDS011;39583;54.682;30.662;2024-02-15T07:50:44;7.22;;;4.10;;
53688;SDS011;39583;54.682;30.662;2024-02-15T07:53:12;7.45;;;3.42;;
53688;SDS011;39583;54.682;30.662;2024-02-15T07:55:40;6.45;;;3.67;;
53688;SDS011;39583;54.682;30.662;2024-02-15T07:58:11;8.45;;;3.22;;
53688;SDS011;39583;54.682;30.662;2024-02-15T08:00:39;4.50;;;2.58;;
53688;SDS011;39583;54.682;30.662;2024-02-15T08:03:07;6.82;;;3.45;;
53688;SDS011;39583;54.682;30.662;2024-02-15T08:05:35;6.57;;;3.28;;
53688;SDS011;39583;54.682;30.662;2024-02-15T08:08:04;6.28;;;3.45;;
53688;SDS011;39583;54.682;30.662;2024-02-15T08:10:33;7.07;;;3.88;;
53688;SDS011;39583;54.682;30.662;2024-02-15T08:13:01;6.75;;;3.67;;
53688;SDS011;39583;54.682;30.662;2024-02-15T08:15:32;7.25;;;3.67;;
53688;SDS011;39583;54.682;30.662;2024-02-15T08:18:00;6.40;;;3.83;;
53688;SDS011;39583;54.682;30.662;2024-02-15T08:20:33;8.30;;;4.05;;
53688;SDS011;39583;54.682;30.662;2024-02-15T08:23:01;8.10;;;4.20;;
53688;SDS011;39583;54.682;30.662;2024-02-15T08:25:29;8.60;;;4.03;;
53688;SDS011;39583;54.682;30.662;2024-02-15T08:27:58;6.78;;;3.65;;
53688;SDS011;39583;54.682;30.662;2024-02-15T08:30:32;6.72;;;3.90;;
53688;SDS011;39583;54.682;30.662;2024-02-15T08:33:00;7.28;;;3.30;;
53688;SDS011;39583;54.682;30.662;2024-02-15T08:35:28;7.95;;;4.13;;
53688;SDS011;39583;54.682;30.662;2024-02-15T08:37:55;9.13;;;3.65;;
53688;SDS011;39583;54.682;30.662;2024-02-15T08:40:23;7.63;;;3.15;;
53688;SDS011;39583;54.682;30.662;2024-02-15T08:42:53;4.18;;;2.70;;
53688;SDS011;39583;54.682;30.662;2024-02-15T08:45:20;6.95;;;3.25;;
53688;SDS011;39583;54.682;30.662;2024-02-15T08:47:49;8.35;;;4.10;;
53688;SDS011;39583;54.682;30.662;2024-02-15T08:50:22;8.80;;;3.90;;
53688;SDS011;39583;54.682;30.662;2024-02-15T08:52:50;8.38;;;3.60;;
53688;SDS011;39583;54.682;30.662;2024-02-15T08:55:18;7.93;;;3.58;;
53688;SDS011;39583;54.682;30.662;2024-02-15T09:00:18;10.80;;;3.30;;
53688;SDS011;39583;54.682;30.662;2024-02-15T09:02:53;5.55;;;3.47;;
53688;SDS011;39583;54.682;30.662;2024-02-15T09:05:21;8.93;;;3.95;;
53688;SDS011;39583;54.682;30.662;2024-02-15T09:07:49;5.60;;;3.70;;
53688;SDS011;39583;54.682;30.662;2024-02-15T09:10:18;6.45;;;3.58;;
53688;SDS011;39583;54.682;30.662;2024-02-15T09:12:46;6.03;;;3.65;;
53688;SDS011;39583;54.682;30.662;2024-02-15T09:15:17;8.13;;;3.50;;
53688;SDS011;39583;54.682;30.662;2024-02-15T09:17:48;5.97;;;3.70;;
53688;SDS011;39583;54.682;30.662;2024-02-15T09:20:16;6.75;;;3.35;;
53688;SDS011;39583;54.682;30.662;2024-02-15T09:22:48;7.35;;;3.50;;
53688;SDS011;39583;54.682;30.662;2024-02-15T09:25:17;5.55;;;3.30;;
53688;SDS011;39583;54.682;30.662;2024-02-15T09:27:46;8.75;;;4.10;;
53688;SDS011;39583;54.682;30.662;2024-02-15T09:30:22;8.13;;;4.28;;
53688;SDS011;39583;54.682;30.662;2024-02-15T09:33:14;9.95;;;4.10;;
53688;SDS011;39583;54.682;30.662;2024-02-15T09:35:43;7.57;;;3.33;;
53688;SDS011;39583;54.682;30.662;2024-02-15T09:38:28;7.07;;;3.75;;
53688;SDS011;39583;54.682;30.662;2024-02-15T09:40:58;8.13;;;3.70;;
53688;SDS011;39583;54.682;30.662;2024-02-15T09:43:36;6.72;;;3.20;;
53688;SDS011;39583;54.682;30.662;2024-02-15T09:46:09;6.13;;;3.13;;
53688;SDS011;39583;54.682;30.662;2024-02-15T09:48:40;9.05;;;3.72;;
53688;SDS011;39583;54.682;30.662;2024-02-15T09:51:20;8.60;;;3.60;;
53688;SDS011;39583;54.682;30.662;2024-02-15T09:53:52;7.82;;;3.45;;
53688;SDS011;39583;54.682;30.662;2024-02-15T09:56:26;7.40;;;3.60;;
53688;SDS011;39583;54.682;30.662;2024-02-15T09:58:59;6.53;;;3.38;;
53688;SDS011;39583;54.682;30.662;2024-02-15T10:01:31;5.35;;;3.30;;
53688;SDS011;39583;54.682;30.662;2024-02-15T10:04:02;8.02;;;3.70;;
53688;SDS011;39583;54.682;30.662;2024-02-15T10:06:37;6.70;;;3.75;;
53688;SDS011;39583;54.682;30.662;2024-02-15T10:09:24;7.30;;;3.60;;
53688;SDS011;39583;54.682;30.662;2024-02-15T10:12:05;11.45;;;3.75;;
53688;SDS011;39583;54.682;30.662;2024-02-15T10:14:46;6.78;;;3.17;;
53688;SDS011;39583;54.682;30.662;2024-02-15T10:17:22;7.82;;;3.60;;
53688;SDS011;39583;54.682;30.662;2024-02-15T10:20:06;7.35;;;4.00;;
53688;SDS011;39583;54.682;30.662;2024-02-15T10:22:34;7.55;;;3.58;;
53688;SDS011;39583;54.682;30.662;2024-02-15T10:25:22;6.10;;;3.50;;
53688;SDS011;39583;54.682;30.662;2024-02-15T10:28:09;9.77;;;5.05;;
53688;SDS011;39583;54.682;30.662;2024-02-15T10:30:40;9.73;;;4.03;;
53688;SDS011;39583;54.682;30.662;2024-02-15T10:33:26;6.95;;;3.65;;
53688;SDS011;39583;54.682;30.662;2024-02-15T10:36:06;8.50;;;3.75;;
53688;SDS011;39583;54.682;30.662;2024-02-15T10:38:44;6.75;;;3.72;;
53688;SDS011;39583;54.682;30.662;2024-02-15T10:41:12;6.28;;;3.42;;
53688;SDS011;39583;54.682;30.662;2024-02-15T10:43:45;7.00;;;3.30;;
53688;SDS011;39583;54.682;30.662;2024-02-15T10:46:15;9.15;;;3.90;;
53688;SDS011;39583;54.682;30.662;2024-02-15T10:48:45;5.57;;;3.42;;
53688;SDS011;39583;54.682;30.662;2024-02-15T10:51:14;3.95;;;2.35;;
53688;SDS011;39583;54.682;30.662;2024-02-15T10:53:55;7.47;;;3.38;;
53688;SDS011;39583;54.682;30.662;2024-02-15T10:56:42;5.63;;;3.10;;
53688;SDS011;39583;54.682;30.662;2024-02-15T10:59:21;5.32;;;3.60;;
53688;SDS011;39583;54.682;30.662;2024-02-15T11:01:58;5.70;;;3.17;;
53688;SDS011;39583;54.682;30.662;2024-02-15T11:04:34;4.50;;;2.53;;
53688;SDS011;39583;54.682;30.662;2024-02-15T11:07:08;8.48;;;3.90;;
53688;SDS011;39583;54.682;30.662;2024-02-15T11:09:39;6.22;;;3.72;;
53688;SDS011;39583;54.682;30.662;2024-02-15T11:12:10;5.65;;;3.22;;
53688;SDS011;39583;54.682;30.662;2024-02-15T11:14:39;5.60;;;3.40;;
53688;SDS011;39583;54.682;30.662;2024-02-15T11:17:12;6.18;;;3.38;;
53688;SDS011;39583;54.682;30.662;2024-02-15T11:23:02;7.65;;;3.90;;
53688;SDS011;39583;54.682;30.662;2024-02-15T11:25:35;6.60;;;3.33;;
53688;SDS011;39583;54.682;30.662;2024-02-15T11:30:55;5.38;;;3.38;;
53688;SDS011;39583;54.682;30.662;2024-02-15T11:36:06;6.88;;;3.80;;
53688;SDS011;39583;54.682;30.662;2024-02-15T11:38:40;5.60;;;3.58;;
53688;SDS011;39583;54.682;30.662;2024-02-15T11:41:11;5.72;;;3.10;;
53688;SDS011;39583;54.682;30.662;2024-02-15T11:43:46;7.15;;;4.13;;
53688;SDS011;39583;54.682;30.662;2024-02-15T11:46:28;7.57;;;3.60;;
53688;SDS011;39583;54.682;30.662;2024-02-15T11:49:01;5.47;;;2.72;;
53688;SDS011;39583;54.682;30.662;2024-02-15T11:51:35;4.82;;;3.00;;
53688;SDS011;39583;54.682;30.662;2024-02-15T11:54:14;6.32;;;3.50;;
53688;SDS011;39583;54.682;30.662;2024-02-15T11:56:48;5.10;;;3.30;;
53688;SDS011;39583;54.682;30.662;2024-02-15T11:59:39;6.13;;;2.88;;
53688;SDS011;39583;54.682;30.662;2024-02-15T12:02:21;3.92;;;2.30;;
53688;SDS011;39583;54.682;30.662;2024-02-15T12:05:07;7.30;;;3.47;;
53688;SDS011;39583;54.682;30.662;2024-02-15T12:07:55;7.00;;;3.13;;
53688;SDS011;39583;54.682;30.662;2024-02-15T12:10:41;5.70;;;3.05;;
53688;SDS011;39583;54.682;30.662;2024-02-15T12:13:27;5.88;;;3.20;;
53688;SDS011;39583;54.682;30.662;2024-02-15T12:16:15;7.10;;;3.38;;
53688;SDS011;39583;54.682;30.662;2024-02-15T12:19:01;7.03;;;3.33;;
53688;SDS011;39583;54.682;30.662;2024-02-15T12:21:30;4.93;;;3.00;;
53688;SDS011;39583;54.682;30.662;2024-02-15T12:24:01;7.55;;;3.15;;
53688;SDS011;39583;54.682;30.662;2024-02-15T12:26:35;6.70;;;3.58;;
53688;SDS011;39583;54.682;30.662;2024-02-15T12:29:04;6.25;;;4.03;;
53688;SDS011;39583;54.682;30.662;2024-02-15T12:31:35;6.90;;;3.22;;
53688;SDS011;39583;54.682;30.662;2024-02-15T12:34:13;5.82;;;3.15;;
53688;SDS011;39583;54.682;30.662;2024-02-15T12:36:46;5.60;;;2.83;;
53688;SDS011;39583;54.682;30.662;2024-02-15T12:39:31;6.68;;;3.75;;
53688;SDS011;39583;54.682;30.662;2024-02-15T12:42:06;7.22;;;3.58;;
53688;SDS011;39583;54.682;30.662;2024-02-15T12:44:36;5.85;;;2.90;;
53688;SDS011;39583;54.682;30.662;2024-02-15T12:47:19;7.57;;;2.92;;
53688;SDS011;39583;54.682;30.662;2024-02-15T12:49:49;5.80;;;3.58;;
53688;SDS011;39583;54.682;30.662;2024-02-15T12:52:37;7.57;;;3.63;;
53688;SDS011;39583;54.682;30.662;2024-02-15T12:55:32;9.48;;;4.32;;
53688;SDS011;39583;54.682;30.662;2024-02-15T12:58:12;6.63;;;3.00;;
53688;SDS011;39583;54.682;30.662;2024-02-15T13:00:50;6.05;;;3.00;;
53688;SDS011;39583;54.682;30.662;2024-02-15T13:03:26;6.13;;;3.03;;
53688;SDS011;39583;54.682;30.662;2024-02-15T13:06:02;6.22;;;2.88;;
53688;SDS011;39583;54.682;30.662;2024-02-15T13:08:38;6.47;;;3.17;;
53688;SDS011;39583;54.682;30.662;2024-02-15T13:11:11;8.38;;;3.80;;
53688;SDS011;39583;54.682;30.662;2024-02-15T13:13:46;6.07;;;3.25;;
53688;SDS011;39583;54.682;30.662;2024-02-15T13:16:18;6.05;;;3.15;;
53688;SDS011;39583;54.682;30.662;2024-02-15T13:18:50;7.45;;;3.17;;
53688;SDS011;39583;54.682;30.662;2024-02-15T13:21:43;6.90;;;3.45;;
53688;SDS011;39583;54.682;30.662;2024-02-15T13:24:20;5.03;;;2.95;;
53688;SDS011;39583;54.682;30.662;2024-02-15T13:26:58;6.32;;;3.70;;
53688;SDS011;39583;54.682;30.662;2024-02-15T13:29:32;7.25;;;3.38;;
53688;SDS011;39583;54.682;30.662;2024-02-15T13:32:02;7.07;;;3.40;;
53688;SDS011;39583;54.682;30.662;2024-02-15T13:34:31;4.35;;;2.60;;
53688;SDS011;39583;54.682;30.662;2024-02-15T13:37:11;5.78;;;3.03;;
53688;SDS011;39583;54.682;30.662;2024-02-15T13:39:41;7.82;;;3.35;;
53688;SDS011;39583;54.682;30.662;2024-02-15T13:42:15;6.38;;;3.22;;
53688;SDS011;39583;54.682;30.662;2024-02-15T13:44:54;6.57;;;3.17;;
53688;SDS011;39583;54.682;30.662;2024-02-15T13:47:32;5.55;;;2.67;;
53688;SDS011;39583;54.682;30.662;2024-02-15T13:50:05;6.73;;;3.30;;
53688;SDS011;39583;54.682;30.662;2024-02-15T13:52:40;5.03;;;2.90;;
53688;SDS011;39583;54.682;30.662;2024-02-15T13:55:19;5.40;;;3.00;;
53688;SDS011;39583;54.682;30.662;2024-02-15T13:58:14;4.82;;;2.60;;
53688;SDS011;39583;54.682;30.662;2024-02-15T14:00:47;5.50;;;3.00;;
53688;SDS011;39583;54.682;30.662;2024-02-15T14:03:25;6.15;;;3.50;;
53688;SDS011;39583;54.682;30.662;2024-02-15T14:06:05;5.47;;;3.65;;
53688;SDS011;39583;54.682;30.662;2024-02-15T14:08:44;5.55;;;2.75;;
53688;SDS011;39583;54.682;30.662;2024-02-15T14:11:13;6.35;;;3.35;;
53688;SDS011;39583;54.682;30.662;2024-02-15T14:13:51;5.80;;;3.10;;
53688;SDS011;39583;54.682;30.662;2024-02-15T14:16:29;7.55;;;3.40;;
53688;SDS011;39583;54.682;30.662;2024-02-15T14:19:19;7.60;;;3.83;;
53688;SDS011;39583;54.682;30.662;2024-02-15T14:21:51;7.55;;;3.53;;
53688;SDS011;39583;54.682;30.662;2024-02-15T14:24:25;5.53;;;3.15;;
53688;SDS011;39583;54.682;30.662;2024-02-15T14:27:05;5.18;;;2.80;;
53688;SDS011;39583;54.682;30.662;2024-02-15T14:29:44;7.03;;;3.60;;
53688;SDS011;39583;54.682;30.662;2024-02-15T14:32:32;5.97;;;3.45;;
53688;SDS011;39583;54.682;30.662;2024-02-15T14:35:18;3.50;;;1.92;;
53688;SDS011;39583;54.682;30.662;2024-02-15T14:37:47;6.95;;;3.40;;
53688;SDS011;39583;54.682;30.662;2024-02-15T14:40:16;9.45;;;3.70;;
53688;SDS011;39583;54.682;30.662;2024-02-15T14:42:52;8.27;;;3.53;;
53688;SDS011;39583;54.682;30.662;2024-02-15T14:48:09;5.90;;;3.15;;
53688;SDS011;39583;54.682;30.662;2024-02-15T14:50:41;4.97;;;3.10;;
53688;SDS011;39583;54.682;30.662;2024-02-15T14:53:10;5.95;;;2.15;;
53688;SDS011;39583;54.682;30.662;2024-02-15T14:55:39;5.28;;;2.97;;
53688;SDS011;39583;54.682;30.662;2024-02-15T14:58:07;9.18;;;4.47;;
53688;SDS011;39583;54.682;30.662;2024-02-15T15:00:39;7.83;;;3.90;;
53688;SDS011;39583;54.682;30.662;2024-02-15T15:03:16;6.63;;;3.67;;
53688;SDS011;39583;54.682;30.662;2024-02-15T15:05:44;7.80;;;4.30;;
53688;SDS011;39583;54.682;30.662;2024-02-15T15:08:33;5.90;;;3.10;;
53688;SDS011;39583;54.682;30.662;2024-02-15T15:11:26;10.20;;;3.83;;
53688;SDS011;39583;54.682;30.662;2024-02-15T15:14:13;8.45;;;3.35;;
53688;SDS011;39583;54.682;30.662;2024-02-15T15:16:42;6.18;;;3.85;;
53688;SDS011;39583;54.682;30.662;2024-02-15T15:19:10;6.50;;;3.63;;
53688;SDS011;39583;54.682;30.662;2024-02-15T15:21:38;6.82;;;4.05;;
53688;SDS011;39583;54.682;30.662;2024-02-15T15:24:09;6.28;;;3.30;;
53688;SDS011;39583;54.682;30.662;2024-02-15T15:26:39;6.05;;;3.47;;
53688;SDS011;39583;54.682;30.662;2024-02-15T15:29:06;6.75;;;3.15;;
53688;SDS011;39583;54.682;30.662;2024-02-15T15:31:35;10.10;;;4.28;;
53688;SDS011;39583;54.682;30.662;2024-02-15T15:34:04;5.95;;;3.60;;
53688;SDS011;39583;54.682;30.662;2024-02-15T15:36:32;7.07;;;3.38;;
53688;SDS011;39583;54.682;30.662;2024-02-15T15:39:00;5.20;;;3.38;;
53688;SDS011;39583;54.682;30.662;2024-02-15T15:41:37;6.60;;;3.60;;
53688;SDS011;39583;54.682;30.662;2024-02-15T15:44:07;6.05;;;3.20;;
53688;SDS011;39583;54.682;30.662;2024-02-15T15:46:36;6.43;;;3.33;;
53688;SDS011;39583;54.682;30.662;2024-02-15T15:49:04;6.50;;;3.08;;
53688;SDS011;39583;54.682;30.662;2024-02-15T15:51:42;6.88;;;3.65;;
53688;SDS011;39583;54.682;30.662;2024-02-15T15:54:10;7.53;;;3.50;;
53688;SDS011;39583;54.682;30.662;2024-02-15T15:56:38;7.40;;;3.45;;
53688;SDS011;39583;54.682;30.662;2024-02-15T15:59:14;4.35;;;2.65;;
53688;SDS011;39583;54.682;30.662;2024-02-15T16:02:01;9.13;;;4.05;;
53688;SDS011;39583;54.682;30.662;2024-02-15T16:04:32;7.85;;;3.13;;
53688;SDS011;39583;54.682;30.662;2024-02-15T16:06:59;8.68;;;4.03;;
53688;SDS011;39583;54.682;30.662;2024-02-15T16:09:27;7.25;;;3.50;;
53688;SDS011;39583;54.682;30.662;2024-02-15T16:11:55;7.90;;;3.80;;
53688;SDS011;39583;54.682;30.662;2024-02-15T16:14:26;5.93;;;3.13;;
53688;SDS011;39583;54.682;30.662;2024-02-15T16:16:54;9.07;;;3.78;;
53688;SDS011;39583;54.682;30.662;2024-02-15T16:19:22;6.32;;;3.20;;
53688;SDS011;39583;54.682;30.662;2024-02-15T16:21:52;9.30;;;4.80;;
53688;SDS011;39583;54.682;30.662;2024-02-15T16:24:21;7.72;;;3.80;;
53688;SDS011;39583;54.682;30.662;2024-02-15T16:26:56;4.95;;;3.08;;
53688;SDS011;39583;54.682;30.662;2024-02-15T16:29:24;9.60;;;4.35;;
53688;SDS011;39583;54.682;30.662;2024-02-15T16:31:53;7.47;;;3.60;;
53688;SDS011;39583;54.682;30.662;2024-02-15T16:34:21;8.70;;;4.18;;
53688;SDS011;39583;54.682;30.662;2024-02-15T16:36:51;5.85;;;3.90;;
53688;SDS011;39583;54.682;30.662;2024-02-15T16:39:23;7.80;;;4.28;;
53688;SDS011;39583;54.682;30.662;2024-02-15T16:41:54;6.85;;;4.45;;
53688;SDS011;39583;54.682;30.662;2024-02-15T16:44:22;10.10;;;3.80;;
53688;SDS011;39583;54.682;30.662;2024-02-15T16:47:04;7.63;;;4.60;;
53688;SDS011;39583;54.682;30.662;2024-02-15T16:52:05;8.45;;;3.80;;
53688;SDS011;39583;54.682;30.662;2024-02-15T16:54:32;6.20;;;3.67;;
53688;SDS011;39583;54.682;30.662;2024-02-15T16:57:00;8.80;;;4.38;;
53688;SDS011;39583;54.682;30.662;2024-02-15T16:59:40;7.38;;;4.05;;
53688;SDS011;39583;54.682;30.662;2024-02-15T17:02:08;9.15;;;4.05;;
53688;SDS011;39583;54.682;30.662;2024-02-15T17:04:36;8.07;;;4.00;;
53688;SDS011;39583;54.682;30.662;2024-02-15T17:07:04;8.30;;;4.45;;
53688;SDS011;39583;54.682;30.662;2024-02-15T17:09:32;8.50;;;4.60;;
53688;SDS011;39583;54.682;30.662;2024-02-15T17:12:00;9.00;;;5.47;;
53688;SDS011;39583;54.682;30.662;2024-02-15T17:14:33;9.57;;;4.28;;
53688;SDS011;39583;54.682;30.662;2024-02-15T17:17:02;8.57;;;4.65;;
53688;SDS011;39583;54.682;30.662;2024-02-15T17:19:32;8.32;;;4.40;;
53688;SDS011;39583;54.682;30.662;2024-02-15T17:22:00;8.55;;;4.40;;
53688;SDS011;39583;54.682;30.662;2024-02-15T17:27:02;13.38;;;4.35;;
53688;SDS011;39583;54.682;30.662;2024-02-15T17:29:29;12.23;;;5.30;;
53688;SDS011;39583;54.682;30.662;2024-02-15T17:31:57;11.32;;;4.93;;
53688;SDS011;39583;54.682;30.662;2024-02-15T17:34:25;8.48;;;4.65;;
53688;SDS011;39583;54.682;30.662;2024-02-15T17:36:53;6.75;;;3.25;;
53688;SDS011;39583;54.682;30.662;2024-02-15T17:39:21;9.60;;;5.25;;
53688;SDS011;39583;54.682;30.662;2024-02-15T17:41:52;11.40;;;5.32;;
53688;SDS011;39583;54.682;30.662;2024-02-15T17:44:20;8.80;;;4.57;;
53688;SDS011;39583;54.682;30.662;2024-02-15T17:46:49;11.27;;;5.40;;
53688;SDS011;39583;54.682;30.662;2024-02-15T17:49:19;10.70;;;5.28;;
53688;SDS011;39583;54.682;30.662;2024-02-15T17:51:47;12.20;;;5.93;;
53688;SDS011;39583;54.682;30.662;2024-02-15T17:54:15;10.23;;;5.03;;
53688;SDS011;39583;54.682;30.662;2024-02-15T17:56:43;9.25;;;4.65;;
53688;SDS011;39583;54.682;30.662;2024-02-15T17:59:10;12.27;;;6.18;;
53688;SDS011;39583;54.682;30.662;2024-02-15T18:01:38;11.52;;;5.43;;
53688;SDS011;39583;54.682;30.662;2024-02-15T18:04:09;9.55;;;5.13;;
53688;SDS011;39583;54.682;30.662;2024-02-15T18:06:38;10.57;;;6.03;;
53688;SDS011;39583;54.682;30.662;2024-02-15T18:09:06;11.35;;;5.75;;
53688;SDS011;39583;54.682;30.662;2024-02-15T18:11:34;14.48;;;6.05;;
53688;SDS011;39583;54.682;30.662;2024-02-15T18:14:08;11.43;;;5.55;;
53688;SDS011;39583;54.682;30.662;2024-02-15T18:16:52;10.98;;;5.82;;
53688;SDS011;39583;54.682;30.662;2024-02-15T18:19:23;15.05;;;6.47;;
53688;SDS011;39583;54.682;30.662;2024-02-15T18:21:53;12.30;;;5.90;;
53688;SDS011;39583;54.682;30.662;2024-02-15T18:27:02;12.20;;;5.53;;
53688;SDS011;39583;54.682;30.662;2024-02-15T18:29:47;12.25;;;5.35;;
53688;SDS011;39583;54.682;30.662;2024-02-15T18:32:15;8.05;;;4.68;;
53688;SDS011;39583;54.682;30.662;2024-02-15T18:34:49;9.73;;;5.32;;
53688;SDS011;39583;54.682;30.662;2024-02-15T18:37:20;10.13;;;3.85;;
53688;SDS011;39583;54.682;30.662;2024-02-15T18:39:50;11.07;;;6.13;;
53688;SDS011;39583;54.682;30.662;2024-02-15T18:42:21;16.48;;;6.20;;
53688;SDS011;39583;54.682;30.662;2024-02-15T18:44:53;14.63;;;6.10;;
53688;SDS011;39583;54.682;30.662;2024-02-15T18:47:22;9.73;;;5.28;;
53688;SDS011;39583;54.682;30.662;2024-02-15T18:49:55;14.27;;;6.05;;
53688;SDS011;39583;54.682;30.662;2024-02-15T18:52:28;12.13;;;4.95;;
53688;SDS011;39583;54.682;30.662;2024-02-15T18:55:00;11.57;;;5.85;;
53688;SDS011;39583;54.682;30.662;2024-02-15T18:57:31;9.48;;;5.13;;
53688;SDS011;39583;54.682;30.662;2024-02-15T19:00:03;12.15;;;5.35;;
53688;SDS011;39583;54.682;30.662;2024-02-15T19:02:50;14.45;;;6.15;;
53688;SDS011;39583;54.682;30.662;2024-02-15T19:05:20;9.70;;;5.57;;
53688;SDS011;39583;54.682;30.662;2024-02-15T19:07:57;11.52;;;5.97;;
53688;SDS011;39583;54.682;30.662;2024-02-15T19:10:29;12.40;;;6.05;;
53688;SDS011;39583;54.682;30.662;2024-02-15T19:12:59;14.43;;;6.05;;
53688;SDS011;39583;54.682;30.662;2024-02-15T19:15:29;11.23;;;5.45;;
53688;SDS011;39583;54.682;30.662;2024-02-15T19:18:01;16.40;;;5.97;;
53688;SDS011;39583;54.682;30.662;2024-02-15T19:20:35;11.13;;;6.15;;
53688;SDS011;39583;54.682;30.662;2024-02-15T19:23:04;12.10;;;4.95;;
53688;SDS011;39583;54.682;30.662;2024-02-15T19:25:36;12.55;;;5.75;;
53688;SDS011;39583;54.682;30.662;2024-02-15T19:28:06;13.40;;;6.80;;
53688;SDS011;39583;54.682;30.662;2024-02-15T19:30:38;14.27;;;6.07;;
53688;SDS011;39583;54.682;30.662;2024-02-15T19:33:09;9.32;;;4.78;;
53688;SDS011;39583;54.682;30.662;2024-02-15T19:35:36;14.95;;;7.10;;
53688;SDS011;39583;54.682;30.662;2024-02-15T19:38:04;10.40;;;4.35;;
53688;SDS011;39583;54.682;30.662;2024-02-15T19:40:32;12.10;;;5.82;;
53688;SDS011;39583;54.682;30.662;2024-02-15T19:43:00;11.48;;;5.05;;
53688;SDS011;39583;54.682;30.662;2024-02-15T19:45:28;13.13;;;4.68;;
53688;SDS011;39583;54.682;30.662;2024-02-15T19:47:58;8.63;;;4.20;;
53688;SDS011;39583;54.682;30.662;2024-02-15T19:50:28;8.50;;;4.47;;
53688;SDS011;39583;54.682;30.662;2024-02-15T19:52:56;10.55;;;4.80;;
53688;SDS011;39583;54.682;30.662;2024-02-15T19:55:26;10.32;;;4.32;;
53688;SDS011;39583;54.682;30.662;2024-02-15T19:57:55;6.07;;;3.53;;
53688;SDS011;39583;54.682;30.662;2024-02-15T20:00:25;8.73;;;3.95;;
53688;SDS011;39583;54.682;30.662;2024-02-15T20:02:53;10.45;;;4.75;;
53688;SDS011;39583;54.682;30.662;2024-02-15T20:05:22;9.77;;;4.25;;
53688;SDS011;39583;54.682;30.662;2024-02-15T20:07:51;7.90;;;3.80;;
53688;SDS011;39583;54.682;30.662;2024-02-15T20:10:24;10.70;;;4.50;;
53688;SDS011;39583;54.682;30.662;2024-02-15T20:12:59;10.93;;;4.45;;
53688;SDS011;39583;54.682;30.662;2024-02-15T20:15:27;10.13;;;4.65;;
53688;SDS011;39583;54.682;30.662;2024-02-15T20:17:58;11.43;;;4.35;;
53688;SDS011;39583;54.682;30.662;2024-02-15T20:20:26;8.00;;;4.07;;
53688;SDS011;39583;54.682;30.662;2024-02-15T20:22:58;8.77;;;4.65;;
53688;SDS011;39583;54.682;30.662;2024-02-15T20:25:29;11.40;;;4.97;;
53688;SDS011;39583;54.682;30.662;2024-02-15T20:28:03;7.43;;;3.53;;
53688;SDS011;39583;54.682;30.662;2024-02-15T20:30:43;9.43;;;4.45;;
53688;SDS011;39583;54.682;30.662;2024-02-15T20:33:14;9.80;;;4.63;;
53688;SDS011;39583;54.682;30.662;2024-02-15T20:35:48;9.95;;;4.68;;
53688;SDS011;39583;54.682;30.662;2024-02-15T20:38:24;9.02;;;4.10;;
53688;SDS011;39583;54.682;30.662;2024-02-15T20:41:00;10.20;;;4.43;;
53688;SDS011;39583;54.682;30.662;2024-02-15T20:43:37;9.05;;;3.95;;
53688;SDS011;39583;54.682;30.662;2024-02-15T20:46:16;9.20;;;4.15;;
53688;SDS011;39583;54.682;30.662;2024-02-15T20:48:55;9.20;;;4.40;;
53688;SDS011;39583;54.682;30.662;2024-02-15T20:51:25;10.05;;;4.60;;
53688;SDS011;39583;54.682;30.662;2024-02-15T20:53:59;8.50;;;4.30;;
53688;SDS011;39583;54.682;30.662;2024-02-15T20:56:41;12.52;;;5.35;;
53688;SDS011;39583;54.682;30.662;2024-02-15T20:59:33;13.07;;;5.30;;
53688;SDS011;39583;54.682;30.662;2024-02-15T21:02:03;13.63;;;5.35;;
53688;SDS011;39583;54.682;30.662;2024-02-15T21:04:31;12.13;;;4.53;;
53688;SDS011;39583;54.682;30.662;2024-02-15T21:06:59;12.43;;;5.80;;
53688;SDS011;39583;54.682;30.662;2024-02-15T21:09:27;12.55;;;5.78;;
53688;SDS011;39583;54.682;30.662;2024-02-15T21:11:55;14.77;;;5.53;;
53688;SDS011;39583;54.682;30.662;2024-02-15T21:14:22;10.85;;;4.53;;
53688;SDS011;39583;54.682;30.662;2024-02-15T21:16:50;12.68;;;5.68;;
53688;SDS011;39583;54.682;30.662;2024-02-15T21:19:19;11.48;;;4.80;;
53688;SDS011;39583;54.682;30.662;2024-02-15T21:21:47;11.18;;;5.55;;
53688;SDS011;39583;54.682;30.662;2024-02-15T21:24:15;11.88;;;5.47;;
53688;SDS011;39583;54.682;30.662;2024-02-15T21:26:43;12.35;;;5.13;;
53688;SDS011;39583;54.682;30.662;2024-02-15T21:29:12;14.45;;;6.45;;
53688;SDS011;39583;54.682;30.662;2024-02-15T21:31:42;16.98;;;6.78;;
53688;SDS011;39583;54.682;30.662;2024-02-15T21:34:10;16.70;;;5.97;;
53688;SDS011;39583;54.682;30.662;2024-02-15T21:36:38;16.30;;;6.38;;
53688;SDS011;39583;54.682;30.662;2024-02-15T21:39:06;13.52;;;5.68;;
53688;SDS011;39583;54.682;30.662;2024-02-15T21:41:34;17.42;;;6.63;;
53688;SDS011;39583;54.682;30.662;2024-02-15T21:44:02;16.30;;;6.72;;
53688;SDS011;39583;54.682;30.662;2024-02-15T21:46:30;15.18;;;6.15;;
53688;SDS011;39583;54.682;30.662;2024-02-15T21:48:58;18.25;;;7.43;;
53688;SDS011;39583;54.682;30.662;2024-02-15T21:51:26;15.45;;;6.50;;
53688;SDS011;39583;54.682;30.662;2024-02-15T21:53:54;16.52;;;6.47;;
53688;SDS011;39583;54.682;30.662;2024-02-15T21:56:22;15.63;;;5.90;;
53688;SDS011;39583;54.682;30.662;2024-02-15T21:58:51;17.05;;;6.80;;
53688;SDS011;39583;54.682;30.662;2024-02-15T22:01:19;15.18;;;6.72;;
53688;SDS011;39583;54.682;30.662;2024-02-15T22:03:46;15.57;;;6.38;;
53688;SDS011;39583;54.682;30.662;2024-02-15T22:06:14;19.55;;;8.07;;
53688;SDS011;39583;54.682;30.662;2024-02-15T22:08:42;20.42;;;5.25;;
53688;SDS011;39583;54.682;30.662;2024-02-15T22:11:09;20.00;;;7.60;;
53688;SDS011;39583;54.682;30.662;2024-02-15T22:13:38;16.25;;;7.03;;
53688;SDS011;39583;54.682;30.662;2024-02-15T22:16:05;19.85;;;8.65;;
53688;SDS011;39583;54.682;30.662;2024-02-15T22:18:34;24.25;;;8.18;;
53688;SDS011;39583;54.682;30.662;2024-02-15T22:21:03;16.08;;;6.85;;
53688;SDS011;39583;54.682;30.662;2024-02-15T22:23:30;24.48;;;8.30;;
53688;SDS011;39583;54.682;30.662;2024-02-15T22:25:58;18.42;;;6.82;;
53688;SDS011;39583;54.682;30.662;2024-02-15T22:28:26;27.85;;;7.57;;
53688;SDS011;39583;54.682;30.662;2024-02-15T22:30:53;22.40;;;8.07;;
53688;SDS011;39583;54.682;30.662;2024-02-15T22:33:21;23.35;;;9.02;;